Detroit, MI

2:27 AM EST on February 27, 2017 (GMT -0500)
Hydraulic Jack's Weather | | Change Station

Elev 620 ft 42.37 °N, 83.25 °W | Updated 12 seconds ago

Partly Cloudy
Partly Cloudy
35.4 °F
Feels Like 30 °F
N
6.8
Wind Variable Wind from SSW

Today
High -- | Low -- °F
--% Chance of Precip.
Yesterday
High -- | Low -- °F
Precip. -- in
Pressure 30.13 in
Visibility 10.0 miles
Clouds Few 9500 ft
Few 20000 ft
Windchill 30 °F
Dew Point 22.5 °F
Humidity 59%
Rainfall 0.00 in
Snow Depth Not available.
7:11 AM 6:21 PM
New Moon, 1% visible
METAR KDTW 270653Z 23013KT 10SM FEW095 FEW200 02/M06 A3011 RMK AO2 SLP202 T00221056 $
Pressure 30.13 in
Visibility 10.0 miles
Clouds Few 9500 ft
Few 20000 ft
Windchill 30 °F
Dew Point 22.5 °F
Humidity 59%
Rainfall 0.00 in
Snow Depth Not available.
7:11 AM 6:21 PM
New Moon, 1% visible
METAR KDTW 270653Z 23013KT 10SM FEW095 FEW200 02/M06 A3011 RMK AO2 SLP202 T00221056 $

Get Your Daily Forecast Email!

Thanks for signing up!

Be on the lookout for a verification email in your inbox.

You'll start receiving the daily forecast at 8 AM.

×

10-Day Weather Forecast

Almanac

Astronomy

Feb. 27, 2017 Rise Set
Actual Time
Civil Twilight
Nautical Twilight
Astronomical Twilight
Moon
Length of Visible Light
Length of Day
Tomorrow will be .
, % of the Moon is Illuminated

Today's Extremes

State Highs State Lows

Community

WunderPhotos

Upload Photos

1,962,540 photos uploaded!

WunderBlog® & News

Nearby

Air Quality

  Air Quality AQ Index Pollutant
Not available.

Snow Depth

Station Depth Elevation

Earthquake Activity

City Distance Mag. Time & Date
Minimum magnitude displayed is 2.5.

Coastal Water Temperatures

Place Temperature

Stations

Nearby Weather Stations

Station Location Temp. Windchill Dew Point Humidity Wind Precip. Elev Updated Type
                   

Watches & Warnings

There are currently no watches in effect.